Time;durP1;ratioP1;P1;durP2;ratioP2;P2;SDS_P1;SDS_P2;PMS_P1;PMS_P2;Temp;Humidity;BMP_temperature;BMP_pressure;BME280_temperature;BME280_humidity;BME280_pressure;Samples;Min_cycle;Max_cycle;Signal;HPM_P1;HPM_P2
2022/03/05 00:01:10;;;;;;;;;;;;;;;0.86;54.03;96849.03;5073102;28;19916;-60
2022/03/05 00:03:36;;;;;;;;;;;;;;;0.90;54.18;96852.06;5073184;28;19928;-61
2022/03/05 00:06:01;;;;;;;;;;;;;;;0.96;54.15;96848.84;5073274;28;19912;-60
2022/03/05 00:08:26;;;;;;;;;;;;;;;0.86;54.09;96851.63;5072688;28;19912;-63
2022/03/05 00:10:52;;;;;;;;;;;;;;;0.82;54.26;96845.19;5072724;28;19912;-61
2022/03/05 00:13:17;;;;;;;;;;;;;;;0.72;54.50;96844.56;5073462;28;19944;-60
2022/03/05 00:15:43;;;;;;;;;;;;;;;0.66;54.82;96846.00;5073519;28;19995;-60
2022/03/05 00:18:08;;;;;;;;;;;;;;;0.71;54.38;96851.50;5073350;28;20226;-60
2022/03/05 00:20:33;;;;;;;;;;;;;;;0.72;54.96;96852.28;5073298;28;20003;-60
2022/03/05 00:22:59;;;;;;;;;;;;;;;0.70;55.05;96852.44;5072547;28;20264;-61
2022/03/05 00:25:24;;;;;;;;;;;;;;;0.75;55.06;96849.38;5073145;28;20300;-61
2022/03/05 00:27:50;;;;;;;;;;;;;;;0.75;54.77;96852.75;5073019;28;19919;-61
2022/03/05 00:30:15;;;;;;;;;;;;;;;0.76;54.67;96851.81;5072719;28;19995;-61
2022/03/05 00:32:41;;;;;;;;;;;;;;;0.66;55.33;96858.91;5075559;28;19985;-61
2022/03/05 00:35:07;;;;;;;;;;;;;;;0.65;55.32;96851.31;5076677;28;19997;-61
2022/03/05 00:37:32;;;;;;;;;;;;;;;0.70;54.86;96854.22;5076852;28;19934;-61
2022/03/05 00:39:58;;;;;;;;;;;;;;;0.76;54.84;96853.56;5076741;28;19981;-62
2022/03/05 00:42:23;;;;;;;;;;;;;;;0.85;54.85;96852.56;5076048;28;19920;-60
2022/03/05 00:44:48;;;;;;;;;;;;;;;0.69;55.41;96843.09;5076463;28;20403;-60
2022/03/05 00:47:14;;;;;;;;;;;;;;;0.67;55.13;96851.97;5076438;28;19918;-60
2022/03/05 00:49:39;;;;;;;;;;;;;;;0.52;56.04;96846.66;5076276;28;20265;-60
2022/03/05 00:52:04;;;;;;;;;;;;;;;0.61;55.75;96853.44;5075731;28;19965;-60
2022/03/05 00:54:29;;;;;;;;;;;;;;;0.59;55.61;96857.13;5076129;28;19912;-61
2022/03/05 00:56:55;;;;;;;;;;;;;;;0.56;56.06;96849.75;5074752;28;19962;-61
2022/03/05 00:59:20;;;;;;;;;;;;;;;0.48;55.88;96854.88;5075929;28;20672;-60
2022/03/05 01:01:45;;;;;;;;;;;;;;;0.43;56.41;96849.41;5075015;28;19961;-60
2022/03/05 01:04:11;;;;;;;;;;;;;;;0.43;56.13;96852.78;5075949;28;19955;-60
2022/03/05 01:06:36;;;;;;;;;;;;;;;0.46;56.69;96851.66;5076207;28;19913;-61
2022/03/05 01:09:02;;;;;;;;;;;;;;;0.53;56.66;96844.88;5075885;28;19912;-64
2022/03/05 01:11:28;;;;;;;;;;;;;;;0.43;56.88;96852.78;5076022;28;19912;-60
2022/03/05 01:13:53;;;;;;;;;;;;;;;0.43;56.60;96842.47;5076577;28;20341;-60
2022/03/05 01:16:19;;;;;;;;;;;;;;;0.50;56.89;96842.66;5076014;28;19924;-61
2022/03/05 01:18:45;;;;;;;;;;;;;;;0.35;57.25;96850.19;5075856;28;19917;-60
2022/03/05 01:21:10;;;;;;;;;;;;;;;0.39;57.19;96851.50;5075584;28;19959;-61
2022/03/05 01:23:35;;;;;;;;;;;;;;;0.33;57.50;96840.06;5075527;28;20328;-60
2022/03/05 01:26:00;;;;;;;;;;;;;;;0.29;57.65;96837.97;5075558;28;19974;-64
2022/03/05 01:28:26;;;;;;;;;;;;;;;0.28;57.43;96849.25;5075461;28;19912;-60
2022/03/05 01:30:51;;;;;;;;;;;;;;;0.25;57.84;96836.69;5075567;28;19952;-61
2022/03/05 01:33:17;;;;;;;;;;;;;;;0.23;57.87;96834.25;5075189;28;19913;-61
2022/03/05 01:35:43;;;;;;;;;;;;;;;0.28;58.11;96829.41;5075479;28;20007;-60
2022/03/05 01:38:09;;;;;;;;;;;;;;;0.14;58.14;96835.22;5075418;28;20718;-61
2022/03/05 01:40:34;;;;;;;;;;;;;;;0.23;58.03;96836.03;5075560;28;19995;-61
2022/03/05 01:43:00;;;;;;;;;;;;;;;0.27;58.16;96833.00;5074132;28;19919;-61
2022/03/05 01:45:25;;;;;;;;;;;;;;;0.18;58.12;96830.53;5075157;28;20262;-61
2022/03/05 01:47:51;;;;;;;;;;;;;;;0.15;58.24;96833.47;5073926;28;19967;-60
2022/03/05 01:50:16;;;;;;;;;;;;;;;0.11;58.09;96837.31;5075509;28;19923;-60
2022/03/05 01:52:41;;;;;;;;;;;;;;;0.17;57.98;96831.53;5075448;28;19998;-63
2022/03/05 01:55:07;;;;;;;;;;;;;;;0.05;58.50;96836.19;5075383;28;19919;-60
2022/03/05 01:57:32;;;;;;;;;;;;;;;0.13;58.36;96828.47;5074974;28;19915;-60
2022/03/05 01:59:58;;;;;;;;;;;;;;;0.10;58.39;96830.56;5074877;28;20265;-60
2022/03/05 02:02:23;;;;;;;;;;;;;;;0.07;58.57;96831.66;5074906;28;19919;-60
2022/03/05 02:04:48;;;;;;;;;;;;;;;0.02;58.99;96825.38;5073985;28;19915;-60
2022/03/05 02:07:14;;;;;;;;;;;;;;;-0.01;58.88;96829.09;5075206;28;19912;-61
2022/03/05 02:09:39;;;;;;;;;;;;;;;0.04;58.93;96829.44;5073752;28;20001;-60
2022/03/05 02:12:05;;;;;;;;;;;;;;;-0.05;59.15;96820.88;5073164;28;19912;-61
2022/03/05 02:14:30;;;;;;;;;;;;;;;-0.06;59.48;96826.19;5074892;28;19919;-60
2022/03/05 02:16:55;;;;;;;;;;;;;;;-0.12;59.49;96829.41;5075116;28;20296;-61
2022/03/05 02:19:20;;;;;;;;;;;;;;;-0.12;59.84;96821.69;5074470;28;20294;-60
2022/03/05 02:21:46;;;;;;;;;;;;;;;-0.21;59.90;96828.56;5074598;28;19916;-61
2022/03/05 02:24:11;;;;;;;;;;;;;;;-0.14;59.63;96828.75;5074659;28;19962;-60
2022/03/05 02:26:37;;;;;;;;;;;;;;;-0.15;59.67;96834.88;5074757;28;20364;-60
2022/03/05 02:29:02;;;;;;;;;;;;;;;-0.23;59.87;96837.44;5074757;28;19920;-61
2022/03/05 02:31:27;;;;;;;;;;;;;;;-0.20;59.91;96837.09;5073511;28;20308;-61
2022/03/05 02:33:52;;;;;;;;;;;;;;;-0.09;59.30;96836.81;5074615;28;19919;-61
2022/03/05 02:36:18;;;;;;;;;;;;;;;-0.12;59.41;96830.22;5074422;28;19958;-60
2022/03/05 02:38:44;;;;;;;;;;;;;;;-0.23;59.33;96833.09;5074594;28;19912;-61
2022/03/05 02:41:09;;;;;;;;;;;;;;;-0.12;59.20;96835.38;5074445;28;20294;-60
2022/03/05 02:43:34;;;;;;;;;;;;;;;-0.26;59.67;96830.00;5074384;28;19913;-62
2022/03/05 02:45:59;;;;;;;;;;;;;;;-0.28;59.61;96830.16;5073179;28;19922;-61
2022/03/05 02:48:25;;;;;;;;;;;;;;;-0.31;60.11;96830.50;5074963;28;19912;-60
2022/03/05 02:50:51;;;;;;;;;;;;;;;-0.27;59.98;96833.53;5074275;28;19994;-61
2022/03/05 02:53:16;;;;;;;;;;;;;;;-0.31;59.89;96830.50;5073600;28;19969;-60
2022/03/05 02:55:42;;;;;;;;;;;;;;;-0.31;60.01;96840.78;5073822;28;19923;-61
2022/03/05 02:58:08;;;;;;;;;;;;;;;-0.32;60.12;96828.88;5073363;28;19943;-62
2022/03/05 03:00:33;;;;;;;;;;;;;;;-0.37;60.28;96825.97;5073729;28;20002;-60
2022/03/05 03:02:59;;;;;;;;;;;;;;;-0.37;60.67;96827.72;5073888;28;19912;-60
2022/03/05 03:05:24;;;;;;;;;;;;;;;-0.43;60.48;96819.69;5073904;28;20354;-61
2022/03/05 03:07:49;;;;;;;;;;;;;;;-0.50;60.32;96826.41;5073373;28;19912;-61
2022/03/05 03:10:15;;;;;;;;;;;;;;;-0.50;60.72;96823.03;5073859;28;19955;-61
2022/03/05 03:12:41;;;;;;;;;;;;;;;-0.44;60.87;96830.94;5073771;28;19919;-61
2022/03/05 03:15:07;;;;;;;;;;;;;;;-0.46;60.50;96837.22;5073851;28;19963;-61
2022/03/05 03:17:58;;;;;;;;;;;;;;;-0.46;60.61;96824.34;5072320;28;19948;-60
2022/03/05 03:20:24;;;;;;;;;;;;;;;-0.52;61.03;96830.94;5072077;28;19930;-60
2022/03/05 03:22:50;;;;;;;;;;;;;;;-0.51;61.01;96835.13;5073828;28;19989;-61
2022/03/05 03:25:15;;;;;;;;;;;;;;;-0.47;60.80;96833.03;5073544;28;19920;-60
2022/03/05 03:27:41;;;;;;;;;;;;;;;-0.67;61.47;96829.88;5073526;28;19920;-60
2022/03/05 03:30:08;;;;;;;;;;;;;;;-0.55;61.69;96836.38;5071936;28;19912;-60
2022/03/05 03:32:34;;;;;;;;;;;;;;;-0.58;60.99;96830.75;5073781;28;20277;-60
2022/03/05 03:34:59;;;;;;;;;;;;;;;-0.59;61.21;96831.69;5073561;28;19912;-61
2022/03/05 03:37:28;;;;;;;;;;;;;;;-0.55;60.88;96830.41;5073612;28;19919;-60
2022/03/05 03:39:54;;;;;;;;;;;;;;;-0.58;60.99;96831.56;5073108;28;19920;-61
2022/03/05 03:42:19;;;;;;;;;;;;;;;-0.71;61.13;96843.22;5072898;28;20315;-60
2022/03/05 03:44:45;;;;;;;;;;;;;;;-0.63;61.26;96835.56;5072598;28;19957;-60
2022/03/05 03:47:10;;;;;;;;;;;;;;;-0.66;61.39;96834.09;5072904;28;19922;-60
2022/03/05 03:49:35;;;;;;;;;;;;;;;-0.65;61.43;96833.13;5073269;28;20321;-60
2022/03/05 03:52:00;;;;;;;;;;;;;;;-0.67;61.34;96829.88;5073024;28;20226;-63
2022/03/05 03:54:26;;;;;;;;;;;;;;;-0.76;61.69;96830.84;5072909;28;20019;-61
2022/03/05 03:56:52;;;;;;;;;;;;;;;-0.74;62.01;96838.41;5072672;28;19916;-59
2022/03/05 03:59:17;;;;;;;;;;;;;;;-0.84;62.20;96847.03;5073285;28;19912;-60
2022/03/05 04:01:42;;;;;;;;;;;;;;;-0.72;61.58;96837.28;5072088;28;19928;-60
2022/03/05 04:04:08;;;;;;;;;;;;;;;-0.80;62.00;96836.44;5072694;28;20412;-60
2022/03/05 04:09:17;;;;;;;;;;;;;;;-0.73;61.91;96838.25;5072786;28;19966;-60
2022/03/05 04:11:42;;;;;;;;;;;;;;;-0.82;62.67;96840.94;5072727;28;19916;-60
2022/03/05 04:14:07;;;;;;;;;;;;;;;-0.78;62.32;96840.47;5073133;28;19921;-60
2022/03/05 04:16:33;;;;;;;;;;;;;;;-0.73;61.97;96840.03;5072692;28;19924;-60
2022/03/05 04:18:58;;;;;;;;;;;;;;;-0.80;62.06;96839.81;5072724;28;19985;-60
2022/03/05 04:21:23;;;;;;;;;;;;;;;-0.93;62.99;96840.25;5071480;28;19933;-60
2022/03/05 04:23:48;;;;;;;;;;;;;;;-0.94;63.36;96841.19;5073125;28;20226;-60
2022/03/05 04:26:14;;;;;;;;;;;;;;;-0.94;63.09;96846.34;5072321;28;20391;-60
2022/03/05 04:28:39;;;;;;;;;;;;;;;-0.81;62.68;96845.94;5072764;28;20279;-60
2022/03/05 04:31:04;;;;;;;;;;;;;;;-0.85;63.42;96839.50;5072323;28;19908;-60
2022/03/05 04:33:30;;;;;;;;;;;;;;;-1.04;63.82;96842.28;5073013;28;19966;-60
2022/03/05 04:35:55;;;;;;;;;;;;;;;-1.09;64.01;96841.94;5073012;28;19912;-60
2022/03/05 04:38:20;;;;;;;;;;;;;;;-1.02;64.02;96842.94;5072422;28;19976;-60
2022/03/05 04:40:45;;;;;;;;;;;;;;;-1.10;64.49;96848.84;5072028;28;19917;-60
2022/03/05 04:43:11;;;;;;;;;;;;;;;-1.03;64.41;96846.47;5072763;28;20003;-59
2022/03/05 04:45:36;;;;;;;;;;;;;;;-1.03;64.62;96854.19;5071017;28;20419;-59
2022/03/05 04:48:01;;;;;;;;;;;;;;;-0.95;64.41;96856.81;5072966;28;19916;-59
2022/03/05 04:50:26;;;;;;;;;;;;;;;-1.03;64.37;96861.88;5072078;28;20387;-59
2022/03/05 04:52:52;;;;;;;;;;;;;;;-0.97;64.66;96858.72;5071823;28;19916;-60
2022/03/05 04:55:17;;;;;;;;;;;;;;;-0.97;64.01;96851.81;5072339;28;19917;-59
2022/03/05 04:57:42;;;;;;;;;;;;;;;-1.00;64.59;96862.38;5071941;28;20404;-60
2022/03/05 05:00:08;;;;;;;;;;;;;;;-0.99;64.52;96860.63;5071820;28;19922;-60
2022/03/05 05:02:33;;;;;;;;;;;;;;;-1.13;64.91;96866.34;5072540;28;19922;-60
2022/03/05 05:04:58;;;;;;;;;;;;;;;-1.08;64.86;96864.13;5072586;28;19995;-60
2022/03/05 05:07:24;;;;;;;;;;;;;;;-1.15;65.34;96860.53;5072115;28;19948;-60
2022/03/05 05:09:49;;;;;;;;;;;;;;;-1.18;65.30;96863.41;5072209;28;19920;-60
2022/03/05 05:12:14;;;;;;;;;;;;;;;-1.16;65.67;96864.06;5072537;28;19973;-60
2022/03/05 05:14:40;;;;;;;;;;;;;;;-1.16;65.40;96867.44;5071959;28;19912;-60
2022/03/05 05:17:05;;;;;;;;;;;;;;;-1.17;65.53;96865.03;5073076;28;20007;-60
2022/03/05 05:19:30;;;;;;;;;;;;;;;-1.20;66.06;96866.13;5076129;28;19920;-63
2022/03/05 05:22:00;;;;;;;;;;;;;;;-1.18;66.31;96871.13;5075727;28;19919;-60
2022/03/05 05:24:26;;;;;;;;;;;;;;;-1.24;66.24;96858.88;5076067;28;19955;-60
2022/03/05 05:26:53;;;;;;;;;;;;;;;-1.31;66.46;96864.63;5075893;28;19917;-60
2022/03/05 05:29:18;;;;;;;;;;;;;;;-1.33;66.65;96863.97;5075797;28;19912;-60
2022/03/05 05:31:43;;;;;;;;;;;;;;;-1.24;66.24;96869.16;5075990;28;20307;-59
2022/03/05 05:34:09;;;;;;;;;;;;;;;-1.19;66.11;96872.91;5075677;28;20295;-60
2022/03/05 05:36:36;;;;;;;;;;;;;;;-1.26;66.57;96877.81;5074569;28;20060;-60
2022/03/05 05:39:02;;;;;;;;;;;;;;;-1.27;67.00;96870.25;5075538;28;20276;-61
2022/03/05 05:41:27;;;;;;;;;;;;;;;-1.42;67.65;96876.91;5075557;28;19913;-60
2022/03/05 05:43:52;;;;;;;;;;;;;;;-1.60;67.95;96873.56;5075341;28;19912;-60
2022/03/05 05:46:18;;;;;;;;;;;;;;;-1.52;67.68;96873.63;5074972;28;19919;-60
2022/03/05 05:48:43;;;;;;;;;;;;;;;-1.53;68.19;96882.28;5074295;28;19916;-60
2022/03/05 05:51:08;;;;;;;;;;;;;;;-1.51;68.07;96882.97;5075285;28;19912;-61
2022/03/05 05:53:34;;;;;;;;;;;;;;;-1.57;68.38;96880.97;5075425;28;19912;-61
2022/03/05 05:55:59;;;;;;;;;;;;;;;-1.59;68.49;96885.44;5074902;28;19993;-61
2022/03/05 05:58:24;;;;;;;;;;;;;;;-1.54;68.90;96889.19;5075087;28;19966;-61
2022/03/05 06:00:50;;;;;;;;;;;;;;;-1.46;68.38;96891.84;5075466;28;19913;-60
2022/03/05 06:03:15;;;;;;;;;;;;;;;-1.56;68.67;96888.50;5073389;28;19912;-61
2022/03/05 06:05:41;;;;;;;;;;;;;;;-1.56;68.52;96893.66;5072994;28;19956;-60
2022/03/05 06:08:06;;;;;;;;;;;;;;;-1.44;69.00;96899.38;5074774;28;19931;-60
2022/03/05 06:10:31;;;;;;;;;;;;;;;-1.23;68.16;96899.06;5075049;28;20342;-60
2022/03/05 06:12:56;;;;;;;;;;;;;;;-1.23;68.27;96901.63;5073264;28;19934;-60
2022/03/05 06:15:22;;;;;;;;;;;;;;;-1.32;68.27;96904.13;5073332;28;19940;-61
2022/03/05 06:17:48;;;;;;;;;;;;;;;-1.31;68.36;96905.75;5074915;28;19966;-61
2022/03/05 06:20:13;;;;;;;;;;;;;;;-1.09;67.28;96899.31;5073088;28;19916;-60
2022/03/05 06:22:38;;;;;;;;;;;;;;;-1.02;67.44;96912.38;5074614;28;20358;-62
2022/03/05 06:25:04;;;;;;;;;;;;;;;-0.99;67.07;96905.16;5074701;28;19916;-62
2022/03/05 06:27:30;;;;;;;;;;;;;;;-0.96;67.49;96916.91;5074267;28;19912;-61
2022/03/05 06:29:55;;;;;;;;;;;;;;;-0.88;67.09;96916.94;5074011;28;19912;-60
2022/03/05 06:32:20;;;;;;;;;;;;;;;-0.90;67.20;96914.56;5074722;28;19916;-60
2022/03/05 06:34:45;;;;;;;;;;;;;;;-0.85;67.31;96916.66;5074699;28;19924;-60
2022/03/05 06:37:11;;;;;;;;;;;;;;;-0.91;67.22;96932.69;5074225;28;20013;-60
2022/03/05 06:39:36;;;;;;;;;;;;;;;-0.96;67.24;96928.03;5074092;28;19966;-61
2022/03/05 06:42:01;;;;;;;;;;;;;;;-0.87;67.10;96931.44;5074372;28;19947;-60
2022/03/05 06:44:26;;;;;;;;;;;;;;;-0.71;66.50;96930.72;5074018;28;19912;-60
2022/03/05 06:46:52;;;;;;;;;;;;;;;-0.57;66.24;96943.03;5073853;28;19919;-61
2022/03/05 06:49:17;;;;;;;;;;;;;;;-0.54;66.13;96947.84;5073761;28;19916;-60
2022/03/05 06:51:42;;;;;;;;;;;;;;;-0.42;65.65;96952.59;5073671;28;20308;-60
2022/03/05 06:54:08;;;;;;;;;;;;;;;-0.48;65.64;96945.47;5073867;28;19912;-61
2022/03/05 06:56:33;;;;;;;;;;;;;;;-0.49;65.86;96953.34;5073339;28;19916;-62
2022/03/05 06:58:58;;;;;;;;;;;;;;;-0.30;65.38;96945.41;5073849;28;20256;-61
2022/03/05 07:01:23;;;;;;;;;;;;;;;-0.03;64.70;96952.09;5074001;28;20402;-60
2022/03/05 07:03:49;;;;;;;;;;;;;;;-0.23;64.82;96948.16;5073912;28;19912;-60
2022/03/05 07:06:14;;;;;;;;;;;;;;;-0.06;64.54;96960.94;5074028;28;19930;-60
2022/03/05 07:08:39;;;;;;;;;;;;;;;0.08;64.20;96951.00;5073586;28;20356;-61
2022/03/05 07:11:04;;;;;;;;;;;;;;;0.08;64.27;96964.69;5074038;28;19947;-62
2022/03/05 07:13:30;;;;;;;;;;;;;;;0.05;64.33;96965.00;5074209;28;19961;-61
2022/03/05 07:15:55;;;;;;;;;;;;;;;0.24;63.59;96957.00;5073839;28;19952;-61
2022/03/05 07:18:21;;;;;;;;;;;;;;;0.39;63.23;96957.97;5072522;28;20336;-60
2022/03/05 07:20:46;;;;;;;;;;;;;;;0.51;63.23;96963.66;5072954;28;19916;-61
2022/03/05 07:23:11;;;;;;;;;;;;;;;0.72;62.27;96953.69;5073442;28;19912;-60
2022/03/05 07:25:39;;;;;;;;;;;;;;;3.34;84.69;96953.91;5073445;28;19944;-62
2022/03/05 07:28:10;;;;;;;17.07;9.43;;;;;;;3.79;56.00;96952.91;5073292;28;20583;-61
2022/03/05 07:30:37;;;;;;;16.70;8.50;;;;;;;2.19;58.12;96952.34;5073091;28;20256;-63
2022/03/05 07:33:02;;;;;;;15.50;9.13;;;;;;;1.71;59.92;96955.13;5073017;28;20223;-61
2022/03/05 07:35:28;;;;;;;15.97;10.00;;;;;;;1.41;60.50;96959.25;5070934;28;20177;-62
2022/03/05 07:37:53;;;;;;;16.87;9.57;;;;;;;1.42;61.15;96955.69;5072545;28;20183;-62
2022/03/05 07:40:19;;;;;;;14.90;9.67;;;;;;;1.37;60.86;96958.78;5071043;28;20262;-62
2022/03/05 07:42:44;;;;;;;16.77;9.90;;;;;;;1.37;61.11;96963.94;5072995;28;20296;-62
2022/03/05 07:45:09;;;;;;;19.77;10.13;;;;;;;1.47;61.05;96956.00;5072845;28;20199;-62
2022/03/05 07:47:35;;;;;;;17.40;10.73;;;;;;;1.30;60.95;96960.41;5072553;28;20555;-62
2022/03/05 07:50:01;;;;;;;17.83;9.43;;;;;;;1.36;61.12;96957.16;5071661;28;20482;-61
2022/03/05 07:52:26;;;;;;;17.50;9.97;;;;;;;1.46;60.73;96951.81;5071153;28;20181;-61
2022/03/05 07:54:52;;;;;;;17.77;10.00;;;;;;;1.30;60.88;96962.19;5071209;28;20193;-61
2022/03/05 07:57:18;;;;;;;17.47;9.80;;;;;;;1.33;60.75;96952.34;5071945;28;20256;-61
2022/03/05 07:59:43;;;;;;;16.90;10.00;;;;;;;1.38;61.48;96949.25;5072445;28;20176;-61
2022/03/05 08:02:10;;;;;;;15.27;10.10;;;;;;;1.47;61.14;96959.41;5073017;28;20201;-62
2022/03/05 08:04:35;;;;;;;16.80;10.13;;;;;;;1.29;61.87;96952.81;5072450;28;20294;-62
2022/03/05 08:07:01;;;;;;;19.73;10.03;;;;;;;1.16;62.79;96959.31;5072712;28;20645;-62
2022/03/05 08:09:26;;;;;;;14.83;9.53;;;;;;;1.29;61.62;96970.88;5072340;28;20227;-61
2022/03/05 08:11:52;;;;;;;17.93;10.63;;;;;;;1.35;62.28;96958.13;5072160;28;20642;-61
2022/03/05 08:14:17;;;;;;;17.60;11.37;;;;;;;1.24;61.78;96956.69;5072387;28;20183;-62
2022/03/05 08:16:42;;;;;;;19.30;10.20;;;;;;;1.28;62.05;96967.53;5072116;28;20208;-62
2022/03/05 08:19:08;;;;;;;17.70;10.43;;;;;;;1.37;62.38;96970.88;5072106;28;20253;-62
2022/03/05 08:21:33;;;;;;;17.50;10.13;;;;;;;1.56;61.97;96963.56;5072203;28;20239;-62
2022/03/05 08:23:59;;;;;;;16.70;10.53;;;;;;;1.79;61.04;96970.59;5070892;28;20188;-60
2022/03/05 08:26:24;;;;;;;18.53;9.83;;;;;;;1.52;61.43;96970.03;5070753;28;20180;-61
2022/03/05 08:28:50;;;;;;;18.80;10.60;;;;;;;1.33;62.51;96961.88;5071084;28;20169;-61
2022/03/05 08:31:16;;;;;;;19.73;10.40;;;;;;;1.68;61.74;96970.00;5072025;28;20578;-62
2022/03/05 08:33:42;;;;;;;16.43;9.63;;;;;;;1.59;61.38;96963.25;5072371;28;20192;-61
2022/03/05 08:36:07;;;;;;;17.80;9.87;;;;;;;1.38;61.86;96967.34;5070843;28;20626;-62
2022/03/05 08:38:34;;;;;;;18.50;9.80;;;;;;;1.78;61.42;96969.81;5072141;28;20176;-62
2022/03/05 08:41:01;;;;;;;16.17;9.87;;;;;;;2.02;60.73;96966.31;5072131;28;20188;-63
2022/03/05 08:43:27;;;;;;;18.63;10.53;;;;;;;1.93;61.21;96972.50;5072265;28;20197;-62
2022/03/05 08:45:52;;;;;;;14.07;9.20;;;;;;;1.93;60.69;96965.56;5072009;28;20272;-62
2022/03/05 08:48:18;;;;;;;18.53;10.20;;;;;;;2.17;60.56;96969.81;5071886;28;20311;-62
2022/03/05 08:50:43;;;;;;;17.63;10.87;;;;;;;2.07;60.42;96970.00;5072472;28;20177;-63
2022/03/05 08:53:09;;;;;;;17.57;10.23;;;;;;;2.15;60.04;96970.94;5075534;28;20579;-63
2022/03/05 08:55:34;;;;;;;19.87;10.67;;;;;;;2.28;60.22;96971.22;5076126;28;20184;-63
2022/03/05 08:58:00;;;;;;;18.60;10.07;;;;;;;2.37;59.66;96967.59;5075159;28;20184;-64
2022/03/05 09:00:27;;;;;;;17.10;10.60;;;;;;;2.36;60.04;96963.38;5075757;28;20188;-66
2022/03/05 09:02:52;;;;;;;20.47;9.27;;;;;;;2.47;59.24;96971.56;5075748;28;20203;-63
2022/03/05 09:05:18;;;;;;;17.47;9.93;;;;;;;2.16;59.37;96963.03;5075473;28;20177;-64
2022/03/05 09:07:44;;;;;;;14.40;8.70;;;;;;;2.02;60.12;96971.47;5075897;28;20215;-63
2022/03/05 09:10:11;;;;;;;15.33;9.53;;;;;;;2.23;60.13;96960.56;5074400;28;20279;-64
2022/03/05 09:12:37;;;;;;;16.67;9.13;;;;;;;2.24;59.25;96960.38;5075479;28;20180;-63
2022/03/05 09:15:04;;;;;;;15.77;9.77;;;;;;;2.08;59.91;96963.84;5075240;28;20184;-63
2022/03/05 09:17:29;;;;;;;15.03;9.13;;;;;;;1.95;59.70;96955.84;5075917;28;20177;-63
2022/03/05 09:19:55;;;;;;;16.60;9.57;;;;;;;1.90;60.92;96952.13;5075186;28;20576;-63
2022/03/05 09:22:20;;;;;;;16.20;9.73;;;;;;;2.12;59.78;96945.44;5075311;28;20284;-63
2022/03/05 09:24:46;;;;;;;19.07;9.80;;;;;;;2.40;60.04;96943.97;5074277;28;20186;-63
2022/03/05 09:27:11;;;;;;;20.30;10.77;;;;;;;2.45;58.82;96952.03;5075244;28;20185;-64
2022/03/05 09:29:37;;;;;;;16.13;10.17;;;;;;;2.42;58.83;96944.59;5075168;28;20173;-63
2022/03/05 09:32:03;;;;;;;15.67;9.37;;;;;;;2.39;58.66;96950.94;5075284;28;20634;-64
2022/03/05 09:34:29;;;;;;;15.20;9.20;;;;;;;2.46;58.29;96951.84;5075547;28;20629;-63
2022/03/05 09:36:54;;;;;;;13.17;8.43;;;;;;;2.69;57.01;96940.69;5074444;28;20181;-63
2022/03/05 09:39:21;;;;;;;12.97;8.60;;;;;;;2.90;56.15;96946.81;5074851;28;20177;-63
2022/03/05 09:41:46;;;;;;;15.90;8.77;;;;;;;3.13;56.13;96949.38;5074973;28;20185;-64
2022/03/05 09:44:12;;;;;;;13.80;8.93;;;;;;;3.10;55.55;96949.75;5074981;28;20201;-63
2022/03/05 09:46:38;;;;;;;13.47;8.53;;;;;;;2.94;55.69;96942.13;5074838;28;20181;-63
2022/03/05 09:49:04;;;;;;;13.83;8.27;;;;;;;2.75;54.94;96945.19;5074588;28;20658;-64
2022/03/05 09:51:31;;;;;;;14.23;8.40;;;;;;;3.00;55.35;96943.22;5075272;28;20208;-63
2022/03/05 09:53:57;;;;;;;14.03;9.00;;;;;;;3.17;53.65;96947.25;5075200;28;20205;-64
2022/03/05 09:56:23;;;;;;;14.23;8.10;;;;;;;3.37;53.54;96932.00;5072904;28;20670;-64
2022/03/05 09:58:51;;;;;;;12.93;8.13;;;;;;;3.44;53.70;96941.50;5074186;28;20561;-63
2022/03/05 10:01:18;;;;;;;12.63;7.33;;;;;;;3.42;53.56;96945.22;5074803;28;20181;-63
2022/03/05 10:03:48;;;;;;;14.97;8.03;;;;;;;3.56;52.84;96944.44;5073504;28;20715;-63
2022/03/05 10:06:19;;;;;;;12.83;7.27;;;;;;;3.70;51.66;96935.84;5075291;28;20185;-63
2022/03/05 10:08:46;;;;;;;11.50;7.30;;;;;;;3.65;51.63;96945.97;5074275;28;20178;-64
2022/03/05 10:11:12;;;;;;;11.37;6.83;;;;;;;3.41;50.67;96935.84;5074523;28;20521;-65
2022/03/05 10:13:42;;;;;;;10.43;6.57;;;;;;;3.50;50.04;96934.78;5074442;28;20203;-63
2022/03/05 10:16:33;;;;;;;9.00;6.80;;;;;;;3.50;49.87;96939.97;5074602;28;20188;-64
2022/03/05 10:19:19;;;;;;;10.90;7.43;;;;;;;3.54;49.85;96941.22;5071354;28;20302;-63
2022/03/05 10:21:55;;;;;;;9.53;5.83;;;;;;;3.76;48.01;96943.72;5072919;28;20172;-63
2022/03/05 10:24:32;;;;;;;13.57;7.07;;;;;;;3.93;49.42;96940.94;5072890;28;20201;-64
2022/03/05 10:26:58;;;;;;;12.83;6.60;;;;;;;3.51;49.04;96936.41;5074808;28;20248;-64
2022/03/05 10:29:36;;;;;;;11.20;6.47;;;;;;;3.73;47.30;96935.50;5074010;28;20261;-64
2022/03/05 10:32:12;;;;;;;8.63;5.87;;;;;;;3.84;49.64;96929.88;5074423;28;20161;-64
2022/03/05 10:34:50;;;;;;;10.23;6.63;;;;;;;3.96;47.65;96928.41;5074125;28;20610;-63
2022/03/05 10:37:20;;;;;;;8.73;6.03;;;;;;;3.85;46.84;96941.81;5074403;28;20181;-63
2022/03/05 10:39:51;;;;;;;9.90;5.83;;;;;;;3.76;46.89;96932.53;5074500;28;20266;-63
2022/03/05 10:42:24;;;;;;;9.87;5.90;;;;;;;4.09;45.70;96928.56;5058282;28;20673;-64
2022/03/05 10:45:18;;;;;;;10.17;6.10;;;;;;;4.40;45.68;96922.31;5054198;28;20174;-62
2022/03/05 10:47:46;;;;;;;9.60;6.13;;;;;;;4.12;46.62;96924.81;5054331;28;20177;-63
2022/03/05 10:50:14;;;;;;;11.83;6.67;;;;;;;4.51;46.32;96921.84;5054243;28;20194;-63
2022/03/05 10:52:45;;;;;;;10.10;6.13;;;;;;;4.59;46.06;96925.09;5066070;28;20188;-64
2022/03/05 10:55:19;;;;;;;13.13;8.23;;;;;;;4.79;45.29;96924.50;5071678;28;20182;-62
2022/03/05 10:58:13;;;;;;;11.00;6.73;;;;;;;4.21;45.91;96918.53;5073716;28;20486;-62
2022/03/05 11:00:40;;;;;;;9.37;6.00;;;;;;;4.36;46.33;96903.69;5074016;28;20154;-63
2022/03/05 11:03:06;;;;;;;9.67;5.90;;;;;;;4.94;45.42;96904.44;5054446;28;20186;-65
2022/03/05 11:05:32;;;;;;;10.30;6.53;;;;;;;5.29;44.84;96903.50;5053366;28;20169;-63
2022/03/05 11:07:59;;;;;;;9.37;6.17;;;;;;;5.53;44.05;96909.22;5053746;28;20677;-62
2022/03/05 11:10:29;;;;;;;8.07;6.00;;;;;;;5.55;43.46;96912.44;5053629;28;20180;-62
2022/03/05 11:12:56;;;;;;;7.83;5.27;;;;;;;5.40;43.64;96908.16;5053404;28;20174;-62
2022/03/05 11:15:30;;;;;;;10.60;6.17;;;;;;;4.82;43.84;96913.72;5072910;28;20234;-62
2022/03/05 11:17:57;;;;;;;9.57;6.50;;;;;;;4.91;44.17;96910.78;5073293;28;20177;-62
2022/03/05 11:20:23;;;;;;;10.60;6.03;;;;;;;5.35;43.75;96907.91;5090313;28;20301;-62
2022/03/05 11:22:50;;;;;;;7.77;5.60;;;;;;;5.07;42.88;96899.31;5093310;28;20197;-62
2022/03/05 11:25:21;;;;;;;10.70;5.90;;;;;;;5.31;42.53;96901.50;5092952;28;20172;-62
2022/03/05 11:27:57;;;;;;;8.00;5.63;;;;;;;5.24;41.99;96895.44;5093378;28;20169;-62
2022/03/05 11:30:23;;;;;;;7.87;5.03;;;;;;;5.33;42.54;96891.72;5075336;28;20176;-63
2022/03/05 11:32:48;;;;;;;8.00;5.17;;;;;;;5.33;41.86;96885.72;5093109;28;20237;-62
2022/03/05 11:35:28;;;;;;;7.77;5.57;;;;;;;5.89;41.21;96889.03;5092746;28;20196;-62
2022/03/05 11:37:53;;;;;;;9.23;5.60;;;;;;;5.65;40.92;96886.88;5093086;28;20189;-62
2022/03/05 11:40:39;;;;;;;7.33;5.30;;;;;;;5.55;41.78;96895.03;5085007;28;20314;-62
2022/03/05 11:43:42;;;;;;;8.17;5.57;;;;;;;5.95;40.86;96877.84;5092186;28;20200;-62
2022/03/05 11:46:07;;;;;;;10.13;6.23;;;;;;;5.88;40.55;96878.81;5072963;28;20192;-62
2022/03/05 11:48:36;;;;;;;9.10;5.70;;;;;;;5.74;41.57;96883.91;5082360;28;20172;-62
2022/03/05 11:51:14;;;;;;;7.20;5.53;;;;;;;5.88;40.86;96878.81;5092928;28;20184;-62
2022/03/05 11:53:42;;;;;;;7.93;5.80;;;;;;;6.23;41.09;96880.34;5093226;28;20161;-62
2022/03/05 11:56:24;;;;;;;8.00;6.23;;;;;;;5.40;40.52;96868.38;5092645;28;20233;-62
2022/03/05 11:58:50;;;;;;;9.27;5.93;;;;;;;6.01;42.96;96861.47;5093172;28;20203;-61
2022/03/05 12:01:33;;;;;;;9.03;6.07;;;;;;;5.80;40.39;96862.34;5093043;28;20234;-61
2022/03/05 12:04:03;;;;;;;11.43;6.40;;;;;;;5.41;41.80;96867.34;5074842;28;20201;-61
2022/03/05 12:06:41;;;;;;;10.83;6.93;;;;;;;5.62;41.38;96863.88;5092595;28;20230;-62
2022/03/05 12:09:27;;;;;;;8.67;5.97;;;;;;;5.34;41.43;96856.94;5092639;28;20247;-62
2022/03/05 12:11:55;;;;;;;8.83;5.93;;;;;;;5.09;41.26;96857.56;5092681;28;20678;-62
2022/03/05 12:14:21;;;;;;;8.13;5.50;;;;;;;5.25;41.60;96865.88;5092914;28;20172;-63
2022/03/05 12:16:48;;;;;;;8.80;5.40;;;;;;;5.25;41.17;96852.06;5092698;28;20475;-63
2022/03/05 12:19:15;;;;;;;8.27;5.70;;;;;;;5.28;41.17;96854.31;5070870;28;20342;-63